Time,TemperatureF,DewpointF,PressureIn,WindDirection,WindDirectionDegrees,WindSpeedMPH,WindSpeedGustMPH,Humidity,HourlyPrecipIn,Conditions,Clouds,dailyrainin,SoftwareType,DateUTC
2013-05-16 00:00:00,63.0,55.3,29.59,North,0,0.0,0.0,76,0.00,,,0.00,WUHU216HW,2013-05-16 04:00:00,
2013-05-16 00:01:00,62.8,55.1,29.59,North,0,0.0,0.0,76,0.00,,,0.00,WUHU216HW,2013-05-16 04:01:00,
2013-05-16 00:02:00,62.6,54.9,29.59,North,0,0.0,0.0,76,0.00,,,0.00,WUHU216HW,2013-05-16 04:02:00,
2013-05-16 00:07:00,62.3,54.9,29.59,North,0,0.0,0.0,77,0.00,,,0.00,WUHU216HW,2013-05-16 04:07:00,
2013-05-16 00:12:00,62.1,55.2,29.58,North,0,0.0,0.0,78,0.00,,,0.00,WUHU216HW,2013-05-16 04:12:00,
2013-05-16 00:17:00,61.9,55.0,29.58,North,0,0.0,0.0,78,0.00,,,0.00,WUHU216HW,2013-05-16 04:17:00,
2013-05-16 00:22:00,61.7,55.2,29.58,North,0,0.0,0.0,79,0.00,,,0.00,WUHU216HW,2013-05-16 04:22:00,
2013-05-16 00:27:00,61.6,55.0,29.58,North,0,0.0,0.0,79,0.00,,,0.00,WUHU216HW,2013-05-16 04:27:00,
2013-05-16 00:32:00,61.4,54.8,29.58,North,0,0.0,0.0,79,0.00,,,0.00,WUHU216HW,2013-05-16 04:32:00,
2013-05-16 00:37:00,61.2,55.7,29.59,North,0,0.0,0.0,82,0.00,,,0.00,WUHU216HW,2013-05-16 04:37:00,
2013-05-16 00:42:00,61.0,55.2,29.59,North,0,0.0,0.0,81,0.00,,,0.00,WUHU216HW,2013-05-16 04:42:00,
2013-05-16 00:47:00,60.8,54.7,29.59,North,0,0.0,0.0,80,0.00,,,0.00,WUHU216HW,2013-05-16 04:47:00,
2013-05-16 00:53:00,60.7,54.5,29.59,North,0,0.0,0.0,80,0.00,,,0.00,WUHU216HW,2013-05-16 04:53:00,
2013-05-16 00:58:00,60.5,54.7,29.59,North,0,0.0,0.0,81,0.00,,,0.00,WUHU216HW,2013-05-16 04:58:00,
2013-05-16 01:03:00,60.1,54.4,29.59,North,0,0.0,0.0,81,0.00,,,0.00,WUHU216HW,2013-05-16 05:03:00,
2013-05-16 01:08:00,59.9,54.2,29.59,North,0,0.0,0.0,81,0.00,,,0.00,WUHU216HW,2013-05-16 05:08:00,
2013-05-16 01:13:00,59.8,54.3,29.59,North,0,0.0,0.0,82,0.00,,,0.00,WUHU216HW,2013-05-16 05:13:00,
2013-05-16 01:18:00,59.8,54.6,29.59,North,0,0.0,0.0,83,0.00,,,0.00,WUHU216HW,2013-05-16 05:18:00,
2013-05-16 01:23:00,59.8,54.6,29.59,North,0,0.0,0.0,83,0.00,,,0.00,WUHU216HW,2013-05-16 05:23:00,
2013-05-16 01:28:00,59.9,55.1,29.59,North,0,0.0,0.0,84,0.00,,,0.00,WUHU216HW,2013-05-16 05:28:00,
2013-05-16 01:33:00,60.1,55.3,29.59,North,0,0.0,0.0,84,0.00,,,0.00,WUHU216HW,2013-05-16 05:33:00,
2013-05-16 01:38:00,60.1,55.0,29.59,North,0,0.0,0.0,83,0.00,,,0.00,WUHU216HW,2013-05-16 05:38:00,
2013-05-16 01:43:00,60.1,55.0,29.59,North,0,0.0,0.0,83,0.00,,,0.00,WUHU216HW,2013-05-16 05:43:00,
2013-05-16 01:49:00,60.1,55.0,29.59,North,0,0.0,0.0,83,0.00,,,0.00,WUHU216HW,2013-05-16 05:49:00,
2013-05-16 01:54:00,59.9,54.8,29.59,North,0,0.0,0.0,83,0.00,,,0.00,WUHU216HW,2013-05-16 05:54:00,
2013-05-16 01:59:00,59.8,54.6,29.59,North,0,0.0,0.0,83,0.00,,,0.00,WUHU216HW,2013-05-16 05:59:00,
2013-05-16 02:04:00,59.6,54.5,29.59,North,0,0.0,0.0,83,0.00,,,0.00,WUHU216HW,2013-05-16 06:04:00,
2013-05-16 02:09:00,59.6,54.5,29.59,North,0,0.0,0.0,83,0.00,,,0.00,WUHU216HW,2013-05-16 06:09:00,
2013-05-16 02:14:00,59.4,54.3,29.58,North,0,0.0,0.0,83,0.00,,,0.00,WUHU216HW,2013-05-16 06:14:00,
2013-05-16 02:19:00,59.4,54.3,29.58,North,0,0.0,0.0,83,0.00,,,0.00,WUHU216HW,2013-05-16 06:19:00,
2013-05-16 02:24:00,59.2,54.4,29.59,North,0,0.0,0.0,84,0.00,,,0.00,WUHU216HW,2013-05-16 06:24:00,
2013-05-16 02:29:00,59.2,54.4,29.59,North,0,0.0,0.0,84,0.00,,,0.00,WUHU216HW,2013-05-16 06:29:00,
2013-05-16 02:34:00,59.0,54.2,29.59,North,0,0.0,0.0,84,0.00,,,0.00,WUHU216HW,2013-05-16 06:34:00,
2013-05-16 02:40:00,59.0,54.5,29.59,North,0,0.0,0.0,85,0.00,,,0.00,WUHU216HW,2013-05-16 06:40:00,
2013-05-16 02:45:00,58.9,54.4,29.59,North,0,0.0,0.0,85,0.00,,,0.00,WUHU216HW,2013-05-16 06:45:00,
2013-05-16 02:50:00,58.9,54.4,29.59,North,0,0.0,0.0,85,0.00,,,0.00,WUHU216HW,2013-05-16 06:50:00,
2013-05-16 02:55:00,58.7,54.2,29.59,North,0,0.0,0.0,85,0.00,,,0.00,WUHU216HW,2013-05-16 06:55:00,
2013-05-16 03:00:00,58.5,54.0,29.59,North,0,0.0,0.0,85,0.00,,,0.00,WUHU216HW,2013-05-16 07:00:00,
2013-05-16 03:05:00,58.5,54.0,29.58,North,0,0.0,0.0,85,0.00,,,0.00,WUHU216HW,2013-05-16 07:05:00,
2013-05-16 03:10:00,58.5,54.0,29.59,North,0,0.0,0.0,85,0.00,,,0.00,WUHU216HW,2013-05-16 07:10:00,
2013-05-16 03:15:00,58.5,54.4,29.59,North,0,0.0,0.0,86,0.00,,,0.00,WUHU216HW,2013-05-16 07:15:00,
2013-05-16 03:21:00,58.7,54.6,29.59,North,0,0.0,0.0,86,0.00,,,0.00,WUHU216HW,2013-05-16 07:21:00,
2013-05-16 03:26:00,58.7,54.6,29.58,North,0,0.0,0.0,86,0.00,,,0.00,WUHU216HW,2013-05-16 07:26:00,
2013-05-16 03:31:00,58.7,54.6,29.58,North,0,0.0,0.0,86,0.00,,,0.00,WUHU216HW,2013-05-16 07:31:00,
2013-05-16 03:36:00,58.7,54.6,29.57,North,0,0.0,0.0,86,0.00,,,0.00,WUHU216HW,2013-05-16 07:36:00,
2013-05-16 03:41:00,58.7,54.6,29.58,North,0,0.0,0.0,86,0.00,,,0.00,WUHU216HW,2013-05-16 07:41:00,
2013-05-16 03:46:00,58.5,54.4,29.58,North,0,0.0,0.0,86,0.00,,,0.00,WUHU216HW,2013-05-16 07:46:00,
2013-05-16 03:51:00,58.3,54.5,29.57,North,0,0.0,0.0,87,0.00,,,0.00,WUHU216HW,2013-05-16 07:51:00,
2013-05-16 03:56:00,58.1,54.3,29.57,North,0,0.0,0.0,87,0.00,,,0.00,WUHU216HW,2013-05-16 07:56:00,
2013-05-16 04:02:00,58.0,54.1,29.58,North,0,0.0,0.0,87,0.00,,,0.00,WUHU216HW,2013-05-16 08:02:00,
2013-05-16 04:07:00,58.0,54.1,29.58,North,0,0.0,0.0,87,0.00,,,0.00,WUHU216HW,2013-05-16 08:07:00,
2013-05-16 04:12:00,58.0,54.1,29.58,North,0,0.0,0.0,87,0.00,,,0.00,WUHU216HW,2013-05-16 08:12:00,
2013-05-16 04:17:00,57.8,53.9,29.58,North,0,0.0,0.0,87,0.00,,,0.00,WUHU216HW,2013-05-16 08:17:00,
2013-05-16 04:22:00,57.8,53.9,29.58,North,0,0.0,0.0,87,0.00,,,0.00,WUHU216HW,2013-05-16 08:22:00,
2013-05-16 04:27:00,57.6,53.7,29.58,North,0,0.0,0.0,87,0.00,,,0.00,WUHU216HW,2013-05-16 08:27:00,
2013-05-16 04:32:00,57.6,54.1,29.58,North,0,0.0,0.0,88,0.00,,,0.00,WUHU216HW,2013-05-16 08:32:00,
2013-05-16 04:37:00,57.6,54.1,29.59,North,0,0.0,0.0,88,0.00,,,0.00,WUHU216HW,2013-05-16 08:37:00,
2013-05-16 04:43:00,57.4,53.9,29.59,North,0,0.0,0.0,88,0.00,,,0.00,WUHU216HW,2013-05-16 08:43:00,
2013-05-16 04:48:00,57.2,53.1,29.59,North,0,0.0,0.0,86,0.00,,,0.00,WUHU216HW,2013-05-16 08:48:00,
2013-05-16 04:53:00,57.2,53.4,29.59,North,0,0.0,0.0,87,0.00,,,0.00,WUHU216HW,2013-05-16 08:53:00,
2013-05-16 04:58:00,57.1,53.2,29.59,North,0,0.0,0.0,87,0.00,,,0.00,WUHU216HW,2013-05-16 08:58:00,
2013-05-16 05:03:00,56.9,53.0,29.59,North,0,0.0,0.0,87,0.00,,,0.00,WUHU216HW,2013-05-16 09:03:00,
2013-05-16 05:08:00,57.2,54.0,29.59,North,0,0.0,0.0,89,0.00,,,0.00,WUHU216HW,2013-05-16 09:08:00,
2013-05-16 05:13:00,57.2,53.7,29.59,North,0,0.0,0.0,88,0.00,,,0.00,WUHU216HW,2013-05-16 09:13:00,
2013-05-16 05:18:00,57.1,53.6,29.59,North,0,0.0,0.0,88,0.00,,,0.00,WUHU216HW,2013-05-16 09:18:00,
2013-05-16 05:24:00,57.1,53.6,29.60,North,0,0.0,0.0,88,0.00,,,0.00,WUHU216HW,2013-05-16 09:24:00,
2013-05-16 05:29:00,57.1,53.6,29.60,North,0,0.0,0.0,88,0.00,,,0.00,WUHU216HW,2013-05-16 09:29:00,
2013-05-16 05:34:00,57.1,53.6,29.60,North,0,0.0,0.0,88,0.00,,,0.00,WUHU216HW,2013-05-16 09:34:00,
2013-05-16 05:39:00,57.2,53.7,29.59,North,0,0.0,0.0,88,0.00,,,0.00,WUHU216HW,2013-05-16 09:39:00,
2013-05-16 05:44:00,57.1,53.6,29.60,North,0,0.0,0.0,88,0.00,,,0.00,WUHU216HW,2013-05-16 09:44:00,
2013-05-16 05:49:00,57.1,53.6,29.59,North,0,0.0,0.0,88,0.00,,,0.00,WUHU216HW,2013-05-16 09:49:00,
2013-05-16 05:54:00,57.1,53.6,29.60,North,0,0.0,0.0,88,0.00,,,0.00,WUHU216HW,2013-05-16 09:54:00,
2013-05-16 05:59:00,57.2,54.0,29.61,North,0,0.0,0.0,89,0.00,,,0.00,WUHU216HW,2013-05-16 09:59:00,
2013-05-16 06:05:00,57.6,54.4,29.61,North,0,0.0,0.0,89,0.00,,,0.00,WUHU216HW,2013-05-16 10:05:00,
2013-05-16 06:10:00,57.6,54.1,29.61,North,0,0.0,0.0,88,0.00,,,0.00,WUHU216HW,2013-05-16 10:10:00,
2013-05-16 06:15:00,57.6,54.1,29.61,North,0,0.0,0.0,88,0.00,,,0.00,WUHU216HW,2013-05-16 10:15:00,
2013-05-16 06:20:00,57.4,53.9,29.62,North,0,0.0,0.0,88,0.00,,,0.00,WUHU216HW,2013-05-16 10:20:00,
2013-05-16 06:25:00,57.6,54.1,29.62,North,0,0.0,0.0,88,0.00,,,0.00,WUHU216HW,2013-05-16 10:25:00,
2013-05-16 06:30:00,58.0,54.7,29.63,North,0,0.0,0.0,89,0.00,,,0.00,WUHU216HW,2013-05-16 10:30:00,
2013-05-16 06:35:00,58.1,54.6,29.63,North,0,0.0,0.0,88,0.00,,,0.00,WUHU216HW,2013-05-16 10:35:00,
2013-05-16 06:40:00,58.3,55.1,29.63,North,0,0.0,0.0,89,0.00,,,0.00,WUHU216HW,2013-05-16 10:40:00,
2013-05-16 06:45:00,58.3,55.1,29.63,North,0,0.0,0.0,89,0.00,,,0.00,WUHU216HW,2013-05-16 10:45:00,
2013-05-16 06:51:00,58.7,55.4,29.64,North,0,0.0,0.0,89,0.00,,,0.00,WUHU216HW,2013-05-16 10:51:00,
2013-05-16 06:56:00,58.9,55.6,29.64,North,0,0.0,0.0,89,0.00,,,0.00,WUHU216HW,2013-05-16 10:56:00,
2013-05-16 07:01:00,59.2,56.0,29.64,North,0,0.0,0.0,89,0.00,,,0.00,WUHU216HW,2013-05-16 11:01:00,
2013-05-16 07:06:00,59.6,56.3,29.64,North,0,0.0,0.0,89,0.00,,,0.00,WUHU216HW,2013-05-16 11:06:00,
2013-05-16 07:11:00,59.9,56.7,29.64,North,0,0.0,0.0,89,0.00,,,0.00,WUHU216HW,2013-05-16 11:11:00,
2013-05-16 07:16:00,60.1,56.6,29.64,North,0,0.0,0.0,88,0.00,,,0.00,WUHU216HW,2013-05-16 11:16:00,
2013-05-16 07:21:00,60.1,56.6,29.64,North,0,0.0,0.0,88,0.00,,,0.00,WUHU216HW,2013-05-16 11:21:00,
2013-05-16 07:26:00,60.5,56.6,29.64,North,0,0.0,0.0,87,0.00,,,0.00,WUHU216HW,2013-05-16 11:26:00,
2013-05-16 07:31:00,60.7,56.8,29.64,North,0,0.0,0.0,87,0.00,,,0.00,WUHU216HW,2013-05-16 11:31:00,
2013-05-16 07:36:00,61.0,57.2,29.64,North,0,0.0,0.0,87,0.00,,,0.00,WUHU216HW,2013-05-16 11:36:00,
2013-05-16 07:41:00,61.4,57.5,29.65,North,0,0.0,0.0,87,0.00,,,0.00,WUHU216HW,2013-05-16 11:41:00,
2013-05-16 07:46:00,61.6,57.3,29.65,North,0,0.0,0.0,86,0.00,,,0.00,WUHU216HW,2013-05-16 11:46:00,
2013-05-16 07:51:00,61.9,57.7,29.65,North,0,0.0,0.0,86,0.00,,,0.00,WUHU216HW,2013-05-16 11:51:00,
2013-05-16 07:57:00,62.1,57.5,29.65,North,0,0.0,0.0,85,0.00,,,0.00,WUHU216HW,2013-05-16 11:57:00,
2013-05-16 08:02:00,62.3,57.7,29.65,North,0,0.0,0.0,85,0.00,,,0.00,WUHU216HW,2013-05-16 12:02:00,
2013-05-16 08:07:00,62.6,58.1,29.66,North,0,0.0,0.0,85,0.00,,,0.00,WUHU216HW,2013-05-16 12:07:00,
2013-05-16 08:12:00,62.6,57.7,29.66,North,0,0.0,0.0,84,0.00,,,0.00,WUHU216HW,2013-05-16 12:12:00,
2013-05-16 08:17:00,62.8,58.2,29.66,North,0,0.0,0.0,85,0.00,,,0.00,WUHU216HW,2013-05-16 12:17:00,
2013-05-16 08:22:00,62.6,57.7,29.67,North,0,0.0,0.0,84,0.00,,,0.00,WUHU216HW,2013-05-16 12:22:00,
2013-05-16 08:27:00,62.5,57.5,29.67,North,0,0.0,0.0,84,0.00,,,0.00,WUHU216HW,2013-05-16 12:27:00,
2013-05-16 08:32:00,62.1,57.5,29.68,North,0,0.0,0.0,85,0.00,,,0.00,WUHU216HW,2013-05-16 12:32:00,
2013-05-16 08:38:00,61.9,57.3,29.68,North,0,0.0,0.0,85,0.00,,,0.00,WUHU216HW,2013-05-16 12:38:00,
2013-05-16 08:43:00,61.9,57.3,29.69,North,0,0.0,0.0,85,0.00,,,0.00,WUHU216HW,2013-05-16 12:43:00,
2013-05-16 08:48:00,61.9,58.1,29.69,North,0,0.0,0.0,87,0.00,,,0.00,WUHU216HW,2013-05-16 12:48:00,
2013-05-16 08:53:00,61.7,57.9,29.70,North,0,0.0,0.0,87,0.00,,,0.00,WUHU216HW,2013-05-16 12:53:00,
2013-05-16 08:58:00,61.7,58.2,29.69,North,0,0.0,0.0,88,0.00,,,0.00,WUHU216HW,2013-05-16 12:58:00,
2013-05-16 09:03:00,61.6,58.1,29.70,North,0,0.0,0.0,88,0.00,,,0.00,WUHU216HW,2013-05-16 13:03:00,
2013-05-16 09:08:00,61.9,58.4,29.69,North,0,0.0,0.0,88,0.00,,,0.00,WUHU216HW,2013-05-16 13:08:00,
2013-05-16 09:13:00,61.9,58.4,29.67,North,0,0.0,0.0,88,0.00,,,0.00,WUHU216HW,2013-05-16 13:13:00,
2013-05-16 09:19:00,62.1,58.2,29.66,North,0,0.0,0.0,87,0.00,,,0.00,WUHU216HW,2013-05-16 13:19:00,
2013-05-16 09:24:00,62.3,58.4,29.67,North,0,0.0,0.0,87,0.00,,,0.00,WUHU216HW,2013-05-16 13:24:00,
2013-05-16 09:29:00,62.8,59.0,29.67,North,0,0.0,0.0,87,0.00,,,0.00,WUHU216HW,2013-05-16 13:29:00,
2013-05-16 09:34:00,63.0,59.1,29.65,North,0,0.0,0.0,87,0.00,,,0.00,WUHU216HW,2013-05-16 13:34:00,
2013-05-16 09:39:00,63.2,59.3,29.64,North,0,0.0,0.0,87,0.00,,,0.00,WUHU216HW,2013-05-16 13:39:00,
2013-05-16 09:44:00,63.5,59.7,29.65,North,0,0.0,0.0,87,0.00,,,0.00,WUHU216HW,2013-05-16 13:44:00,
2013-05-16 09:49:00,63.7,59.9,29.65,North,0,0.0,0.0,87,0.00,,,0.00,WUHU216HW,2013-05-16 13:49:00,
2013-05-16 09:54:00,64.1,60.2,29.67,North,0,0.0,0.0,87,0.00,,,0.00,WUHU216HW,2013-05-16 13:54:00,
2013-05-16 09:59:00,64.4,60.6,29.67,North,0,0.0,0.0,87,0.00,,,0.00,WUHU216HW,2013-05-16 13:59:00,
2013-05-16 10:05:00,65.0,60.7,29.67,North,0,0.0,0.0,86,0.00,,,0.00,WUHU216HW,2013-05-16 14:05:00,
2013-05-16 10:10:00,65.5,61.2,29.67,North,0,0.0,0.0,86,0.00,,,0.00,WUHU216HW,2013-05-16 14:10:00,
2013-05-16 10:15:00,66.1,60.8,29.67,North,0,0.0,0.0,83,0.00,,,0.00,WUHU216HW,2013-05-16 14:15:00,
2013-05-16 10:20:00,66.2,60.9,29.66,North,0,0.0,0.0,83,0.00,,,0.00,WUHU216HW,2013-05-16 14:20:00,
2013-05-16 10:25:00,67.0,61.3,29.67,North,0,0.0,0.0,82,0.00,,,0.00,WUHU216HW,2013-05-16 14:25:00,
2013-05-16 10:30:00,67.5,61.6,29.66,North,0,0.0,0.0,81,0.00,,,0.00,WUHU216HW,2013-05-16 14:30:00,
2013-05-16 10:35:00,68.0,61.0,29.65,North,0,0.0,0.0,78,0.00,,,0.00,WUHU216HW,2013-05-16 14:35:00,
2013-05-16 10:40:00,68.4,60.6,29.65,North,0,0.0,0.0,76,0.00,,,0.00,WUHU216HW,2013-05-16 14:40:00,
2013-05-16 10:46:00,68.8,59.4,29.66,North,0,0.0,0.0,72,0.00,,,0.00,WUHU216HW,2013-05-16 14:46:00,
2013-05-16 10:51:00,69.7,61.3,29.66,North,0,0.0,0.0,75,0.00,,,0.00,WUHU216HW,2013-05-16 14:51:00,
2013-05-16 10:56:00,69.8,60.3,29.67,North,0,0.0,0.0,72,0.00,,,0.00,WUHU216HW,2013-05-16 14:56:00,
2013-05-16 11:01:00,70.0,60.1,29.67,North,0,0.0,0.0,71,0.00,,,0.00,WUHU216HW,2013-05-16 15:01:00,
2013-05-16 11:06:00,70.0,59.8,29.67,North,0,0.0,0.0,70,0.00,,,0.00,WUHU216HW,2013-05-16 15:06:00,
2013-05-16 11:11:00,70.0,60.1,29.67,North,0,0.0,0.0,71,0.00,,,0.00,WUHU216HW,2013-05-16 15:11:00,
2013-05-16 11:16:00,70.0,59.8,29.67,North,0,0.0,0.0,70,0.00,,,0.00,WUHU216HW,2013-05-16 15:16:00,
2013-05-16 11:21:00,70.0,59.3,29.67,North,0,0.0,0.0,69,0.00,,,0.00,WUHU216HW,2013-05-16 15:21:00,
2013-05-16 11:27:00,70.2,59.9,29.67,North,0,0.0,0.0,70,0.00,,,0.00,WUHU216HW,2013-05-16 15:27:00,
2013-05-16 11:32:00,70.6,59.9,29.67,North,0,0.0,0.0,69,0.00,,,0.00,WUHU216HW,2013-05-16 15:32:00,
2013-05-16 11:37:00,70.9,60.2,29.66,North,0,0.0,0.0,69,0.00,,,0.00,WUHU216HW,2013-05-16 15:37:00,
2013-05-16 11:42:00,71.6,60.1,29.66,North,0,0.0,0.0,67,0.00,,,0.00,WUHU216HW,2013-05-16 15:42:00,
2013-05-16 11:47:00,72.2,60.2,29.66,North,0,0.0,0.0,66,0.00,,,0.00,WUHU216HW,2013-05-16 15:47:00,
2013-05-16 11:52:00,72.4,59.5,29.66,North,0,0.0,0.0,64,0.00,,,0.00,WUHU216HW,2013-05-16 15:52:00,
2013-05-16 11:57:00,73.1,59.7,29.66,North,0,0.0,0.0,63,0.00,,,0.00,WUHU216HW,2013-05-16 15:57:00,
2013-05-16 12:02:00,73.4,59.6,29.66,North,0,0.0,0.0,62,0.00,,,0.00,WUHU216HW,2013-05-16 16:02:00,
2013-05-16 12:07:00,74.0,60.6,29.66,North,0,0.0,0.0,63,0.00,,,0.00,WUHU216HW,2013-05-16 16:07:00,
2013-05-16 12:12:00,74.7,61.3,29.66,North,0,0.0,0.0,63,0.00,,,0.00,WUHU216HW,2013-05-16 16:12:00,
2013-05-16 12:18:00,75.2,61.7,29.66,North,0,0.0,0.0,63,0.00,,,0.00,WUHU216HW,2013-05-16 16:18:00,
2013-05-16 12:23:00,75.6,60.9,29.66,North,0,0.0,0.0,60,0.00,,,0.00,WUHU216HW,2013-05-16 16:23:00,
2013-05-16 12:28:00,76.1,60.3,29.66,North,0,0.0,0.0,58,0.00,,,0.00,WUHU216HW,2013-05-16 16:28:00,
2013-05-16 12:33:00,76.5,59.6,29.66,North,0,0.0,0.0,56,0.00,,,0.00,WUHU216HW,2013-05-16 16:33:00,
2013-05-16 12:38:00,76.7,60.3,29.65,North,0,0.0,0.0,57,0.00,,,0.00,WUHU216HW,2013-05-16 16:38:00,
2013-05-16 12:43:00,76.9,60.0,29.66,North,0,0.0,0.0,56,0.00,,,0.00,WUHU216HW,2013-05-16 16:43:00,
2013-05-16 12:48:00,77.0,60.6,29.65,North,0,0.0,0.0,57,0.00,,,0.00,WUHU216HW,2013-05-16 16:48:00,
2013-05-16 12:53:00,77.4,60.4,29.65,North,0,0.0,0.0,56,0.00,,,0.00,WUHU216HW,2013-05-16 16:53:00,
2013-05-16 12:59:00,78.1,59.0,29.65,North,0,0.0,0.0,52,0.00,,,0.00,WUHU216HW,2013-05-16 16:59:00,
2013-05-16 13:04:00,78.7,58.5,29.65,North,0,0.0,0.0,50,0.00,,,0.00,WUHU216HW,2013-05-16 17:04:00,
2013-05-16 13:09:00,78.5,56.5,29.65,North,0,0.0,0.0,47,0.00,,,0.00,WUHU216HW,2013-05-16 17:09:00,
2013-05-16 13:14:00,78.3,53.9,29.65,North,0,0.0,0.0,43,0.00,,,0.00,WUHU216HW,2013-05-16 17:14:00,
2013-05-16 13:19:00,78.5,53.5,29.64,North,0,0.0,0.0,42,0.00,,,0.00,WUHU216HW,2013-05-16 17:19:00,
2013-05-16 13:24:00,78.8,56.3,29.64,North,0,0.0,0.0,46,0.00,,,0.00,WUHU216HW,2013-05-16 17:24:00,
2013-05-16 13:29:00,79.4,56.7,29.64,North,0,0.0,0.0,46,0.00,,,0.00,WUHU216HW,2013-05-16 17:29:00,
2013-05-16 13:34:00,79.6,56.3,29.64,North,0,0.0,0.0,45,0.00,,,0.00,WUHU216HW,2013-05-16 17:34:00,
2013-05-16 13:40:00,79.6,57.5,29.64,North,0,0.0,0.0,47,0.00,,,0.00,WUHU216HW,2013-05-16 17:40:00,
2013-05-16 13:45:00,79.4,56.7,29.64,North,0,0.0,0.0,46,0.00,,,0.00,WUHU216HW,2013-05-16 17:45:00,
2013-05-16 13:50:00,79.4,58.6,29.64,North,0,0.0,0.0,49,0.00,,,0.00,WUHU216HW,2013-05-16 17:50:00,
2013-05-16 13:55:00,79.0,59.4,29.64,North,0,0.0,0.0,51,0.00,,,0.00,WUHU216HW,2013-05-16 17:55:00,
2013-05-16 14:00:00,79.0,59.9,29.64,North,0,0.0,0.0,52,0.00,,,0.00,WUHU216HW,2013-05-16 18:00:00,
2013-05-16 14:05:00,79.2,60.6,29.64,North,0,0.0,0.0,53,0.00,,,0.00,WUHU216HW,2013-05-16 18:05:00,
2013-05-16 14:10:00,79.2,60.6,29.64,North,0,0.0,0.0,53,0.00,,,0.00,WUHU216HW,2013-05-16 18:10:00,
2013-05-16 14:15:00,79.2,60.6,29.63,North,0,0.0,0.0,53,0.00,,,0.00,WUHU216HW,2013-05-16 18:15:00,
2013-05-16 14:20:00,79.4,61.7,29.63,North,0,0.0,0.0,55,0.00,,,0.00,WUHU216HW,2013-05-16 18:20:00,
2013-05-16 14:25:00,79.6,62.5,29.63,North,0,0.0,0.0,56,0.00,,,0.00,WUHU216HW,2013-05-16 18:25:00,
2013-05-16 14:31:00,79.6,62.5,29.63,North,0,0.0,0.0,56,0.00,,,0.00,WUHU216HW,2013-05-16 18:31:00,
2013-05-16 14:36:00,79.6,62.5,29.63,North,0,0.0,0.0,56,0.00,,,0.00,WUHU216HW,2013-05-16 18:36:00,
2013-05-16 14:41:00,79.9,63.8,29.63,North,0,0.0,0.0,58,0.00,,,0.00,WUHU216HW,2013-05-16 18:41:00,
2013-05-16 14:46:00,80.3,63.6,29.63,North,0,0.0,0.0,57,0.00,,,0.00,WUHU216HW,2013-05-16 18:46:00,
2013-05-16 14:51:00,80.3,62.6,29.62,North,0,0.0,0.0,55,0.00,,,0.00,WUHU216HW,2013-05-16 18:51:00,
2013-05-16 14:56:00,80.1,62.9,29.62,North,0,0.0,0.0,56,0.00,,,0.00,WUHU216HW,2013-05-16 18:56:00,
2013-05-16 15:01:00,80.1,62.9,29.62,North,0,0.0,0.0,56,0.00,,,0.00,WUHU216HW,2013-05-16 19:01:00,
2013-05-16 15:06:00,80.1,60.8,29.62,North,0,0.0,0.0,52,0.00,,,0.00,WUHU216HW,2013-05-16 19:06:00,
2013-05-16 15:12:00,80.3,61.0,29.62,North,0,0.0,0.0,52,0.00,,,0.00,WUHU216HW,2013-05-16 19:12:00,
2013-05-16 15:17:00,80.3,62.1,29.62,North,0,0.0,0.0,54,0.00,,,0.00,WUHU216HW,2013-05-16 19:17:00,
2013-05-16 15:22:00,80.6,62.9,29.62,North,0,0.0,0.0,55,0.00,,,0.00,WUHU216HW,2013-05-16 19:22:00,
2013-05-16 15:27:00,80.8,62.6,29.61,North,0,0.0,0.0,54,0.00,,,0.00,WUHU216HW,2013-05-16 19:27:00,
2013-05-16 15:32:00,81.0,62.7,29.61,North,0,0.0,0.0,54,0.00,,,0.00,WUHU216HW,2013-05-16 19:32:00,
2013-05-16 15:37:00,81.4,63.0,29.62,North,0,0.0,0.0,54,0.00,,,0.00,WUHU216HW,2013-05-16 19:37:00,
2013-05-16 15:42:00,81.5,62.6,29.61,North,0,0.0,0.0,53,0.00,,,0.00,WUHU216HW,2013-05-16 19:42:00,
2013-05-16 15:47:00,81.7,63.4,29.61,North,0,0.0,0.0,54,0.00,,,0.00,WUHU216HW,2013-05-16 19:47:00,
2013-05-16 15:52:00,81.7,61.8,29.61,North,0,0.0,0.0,51,0.00,,,0.00,WUHU216HW,2013-05-16 19:52:00,
2013-05-16 15:57:00,81.9,61.9,29.61,North,0,0.0,0.0,51,0.00,,,0.00,WUHU216HW,2013-05-16 19:57:00,
2013-05-16 16:02:00,82.3,62.8,29.61,North,0,0.0,0.0,52,0.00,,,0.00,WUHU216HW,2013-05-16 20:02:00,
2013-05-16 16:07:00,82.4,61.9,29.61,North,0,0.0,0.0,50,0.00,,,0.00,WUHU216HW,2013-05-16 20:07:00,
2013-05-16 16:12:00,82.4,62.5,29.60,North,0,0.0,0.0,51,0.00,,,0.00,WUHU216HW,2013-05-16 20:12:00,
2013-05-16 16:17:00,81.9,61.5,29.60,North,0,0.0,0.0,50,0.00,,,0.00,WUHU216HW,2013-05-16 20:17:00,
2013-05-16 16:23:00,81.5,62.2,29.60,North,0,0.0,0.0,52,0.00,,,0.00,WUHU216HW,2013-05-16 20:23:00,
2013-05-16 16:28:00,81.7,61.8,29.60,North,0,0.0,0.0,51,0.00,,,0.00,WUHU216HW,2013-05-16 20:28:00,
2013-05-16 16:33:00,82.1,62.6,29.60,North,0,0.0,0.0,52,0.00,,,0.00,WUHU216HW,2013-05-16 20:33:00,
2013-05-16 16:38:00,82.4,62.5,29.60,North,0,0.0,0.0,51,0.00,,,0.00,WUHU216HW,2013-05-16 20:38:00,
2013-05-16 16:43:00,82.4,62.5,29.60,North,0,0.0,0.0,51,0.00,,,0.00,WUHU216HW,2013-05-16 20:43:00,
2013-05-16 16:48:00,82.6,62.7,29.60,North,0,0.0,0.0,51,0.00,,,0.00,WUHU216HW,2013-05-16 20:48:00,
2013-05-16 16:53:00,82.8,62.8,29.60,North,0,0.0,0.0,51,0.00,,,0.00,WUHU216HW,2013-05-16 20:53:00,
2013-05-16 16:58:00,83.0,61.8,29.60,North,0,0.0,0.0,49,0.00,,,0.00,WUHU216HW,2013-05-16 20:58:00,
2013-05-16 17:03:00,84.2,63.7,29.59,North,0,0.0,0.0,50,0.00,,,0.00,WUHU216HW,2013-05-16 21:03:00,
2013-05-16 17:09:00,85.1,63.9,29.59,North,0,0.0,0.0,49,0.00,,,0.00,WUHU216HW,2013-05-16 21:09:00,
2013-05-16 17:14:00,86.0,64.7,29.59,North,0,0.0,0.0,49,0.00,,,0.00,WUHU216HW,2013-05-16 21:14:00,
2013-05-16 17:19:00,87.1,63.8,29.59,North,0,0.0,0.0,46,0.00,,,0.00,WUHU216HW,2013-05-16 21:19:00,
2013-05-16 17:24:00,87.7,64.9,29.59,North,0,0.0,0.0,47,0.00,,,0.00,WUHU216HW,2013-05-16 21:24:00,
2013-05-16 17:29:00,89.5,65.8,29.59,North,0,0.0,0.0,46,0.00,,,0.00,WUHU216HW,2013-05-16 21:29:00,
2013-05-16 17:34:00,88.9,64.7,29.59,North,0,0.0,0.0,45,0.00,,,0.00,WUHU216HW,2013-05-16 21:34:00,
2013-05-16 17:39:00,88.9,64.7,29.59,North,0,0.0,0.0,45,0.00,,,0.00,WUHU216HW,2013-05-16 21:39:00,
2013-05-16 17:44:00,88.4,64.9,29.59,North,0,0.0,0.0,46,0.00,,,0.00,WUHU216HW,2013-05-16 21:44:00,
2013-05-16 17:50:00,88.2,64.7,29.59,North,0,0.0,0.0,46,0.00,,,0.00,WUHU216HW,2013-05-16 21:50:00,
2013-05-16 17:55:00,87.8,63.8,29.59,North,0,0.0,0.0,45,0.00,,,0.00,WUHU216HW,2013-05-16 21:55:00,
2013-05-16 18:00:00,87.5,63.5,29.59,North,0,0.0,0.0,45,0.00,,,0.00,WUHU216HW,2013-05-16 22:00:00,
2013-05-16 18:05:00,87.5,63.5,29.59,North,0,0.0,0.0,45,0.00,,,0.00,WUHU216HW,2013-05-16 22:05:00,
2013-05-16 18:10:00,87.1,63.8,29.59,North,0,0.0,0.0,46,0.00,,,0.00,WUHU216HW,2013-05-16 22:10:00,
2013-05-16 18:15:00,87.5,63.5,29.59,North,0,0.0,0.0,45,0.00,,,0.00,WUHU216HW,2013-05-16 22:15:00,
2013-05-16 18:20:00,88.4,64.9,29.59,North,0,0.0,0.0,46,0.00,,,0.00,WUHU216HW,2013-05-16 22:20:00,
2013-05-16 18:25:00,89.3,64.4,29.59,North,0,0.0,0.0,44,0.00,,,0.00,WUHU216HW,2013-05-16 22:25:00,
2013-05-16 18:30:00,88.9,63.5,29.59,North,0,0.0,0.0,43,0.00,,,0.00,WUHU216HW,2013-05-16 22:30:00,
2013-05-16 18:35:00,89.3,63.7,29.59,North,0,0.0,0.0,43,0.00,,,0.00,WUHU216HW,2013-05-16 22:35:00,
2013-05-16 18:40:00,88.9,62.8,29.60,North,0,0.0,0.0,42,0.00,,,0.00,WUHU216HW,2013-05-16 22:40:00,
2013-05-16 18:46:00,88.2,62.8,29.60,North,0,0.0,0.0,43,0.00,,,0.00,WUHU216HW,2013-05-16 22:46:00,
2013-05-16 18:51:00,88.0,63.4,29.60,North,0,0.0,0.0,44,0.00,,,0.00,WUHU216HW,2013-05-16 22:51:00,
2013-05-16 18:56:00,87.5,62.8,29.60,North,0,0.0,0.0,44,0.00,,,0.00,WUHU216HW,2013-05-16 22:56:00,
2013-05-16 19:01:00,86.2,62.4,29.61,North,0,0.0,0.0,45,0.00,,,0.00,WUHU216HW,2013-05-16 23:01:00,
2013-05-16 19:06:00,84.6,60.9,29.61,North,0,0.0,0.0,45,0.00,,,0.00,WUHU216HW,2013-05-16 23:06:00,
2013-05-16 19:11:00,83.2,59.6,29.61,North,0,0.0,0.0,45,0.00,,,0.00,WUHU216HW,2013-05-16 23:11:00,
2013-05-16 19:16:00,81.9,59.6,29.61,North,0,0.0,0.0,47,0.00,,,0.00,WUHU216HW,2013-05-16 23:16:00,
2013-05-16 19:21:00,81.0,58.8,29.61,North,0,0.0,0.0,47,0.00,,,0.00,WUHU216HW,2013-05-16 23:21:00,
2013-05-16 19:26:00,80.3,58.1,29.62,North,0,0.0,0.0,47,0.00,,,0.00,WUHU216HW,2013-05-16 23:26:00,
2013-05-16 19:31:00,79.6,57.5,29.61,North,0,0.0,0.0,47,0.00,,,0.00,WUHU216HW,2013-05-16 23:31:00,
2013-05-16 19:36:00,79.2,57.2,29.62,North,0,0.0,0.0,47,0.00,,,0.00,WUHU216HW,2013-05-16 23:36:00,
2013-05-16 19:41:00,78.7,57.3,29.62,North,0,0.0,0.0,48,0.00,,,0.00,WUHU216HW,2013-05-16 23:41:00,
2013-05-16 19:47:00,78.1,56.8,29.62,North,0,0.0,0.0,48,0.00,,,0.00,WUHU216HW,2013-05-16 23:47:00,
2013-05-16 19:52:00,77.4,56.8,29.62,North,0,0.0,0.0,49,0.00,,,0.00,WUHU216HW,2013-05-16 23:52:00,
2013-05-16 19:57:00,76.7,56.2,29.62,North,0,0.0,0.0,49,0.00,,,0.00,WUHU216HW,2013-05-16 23:57:00,
2013-05-16 20:02:00,76.1,55.6,29.62,North,0,0.0,0.0,49,0.00,,,0.00,WUHU216HW,2013-05-17 00:02:00,
2013-05-16 20:07:00,75.8,55.9,29.62,North,0,0.0,0.0,50,0.00,,,0.00,WUHU216HW,2013-05-17 00:07:00,
2013-05-16 20:12:00,74.9,55.6,29.63,North,0,0.0,0.0,51,0.00,,,0.00,WUHU216HW,2013-05-17 00:12:00,
2013-05-16 20:17:00,74.3,55.5,29.63,North,0,0.0,0.0,52,0.00,,,0.00,WUHU216HW,2013-05-17 00:17:00,
2013-05-16 20:22:00,73.8,55.0,29.63,North,0,0.0,0.0,52,0.00,,,0.00,WUHU216HW,2013-05-17 00:22:00,
2013-05-16 20:28:00,73.1,54.8,29.63,North,0,0.0,0.0,53,0.00,,,0.00,WUHU216HW,2013-05-17 00:28:00,
2013-05-16 20:33:00,72.5,54.8,29.63,North,0,0.0,0.0,54,0.00,,,0.00,WUHU216HW,2013-05-17 00:33:00,
2013-05-16 20:38:00,72.0,54.4,29.64,North,0,0.0,0.0,54,0.00,,,0.00,WUHU216HW,2013-05-17 00:38:00,
2013-05-16 20:43:00,71.6,54.5,29.64,North,0,0.0,0.0,55,0.00,,,0.00,WUHU216HW,2013-05-17 00:43:00,
2013-05-16 20:48:00,71.1,54.1,29.64,North,0,0.0,0.0,55,0.00,,,0.00,WUHU216HW,2013-05-17 00:48:00,
2013-05-16 20:53:00,70.7,54.3,29.64,North,0,0.0,0.0,56,0.00,,,0.00,WUHU216HW,2013-05-17 00:53:00,
2013-05-16 20:58:00,70.2,53.7,29.64,North,0,0.0,0.0,56,0.00,,,0.00,WUHU216HW,2013-05-17 00:58:00,
2013-05-16 21:03:00,70.0,54.1,29.64,North,0,0.0,0.0,57,0.00,,,0.00,WUHU216HW,2013-05-17 01:03:00,
2013-05-16 21:09:00,69.5,54.1,29.65,North,0,0.0,0.0,58,0.00,,,0.00,WUHU216HW,2013-05-17 01:09:00,
2013-05-16 21:14:00,69.5,55.1,29.65,North,0,0.0,0.0,60,0.00,,,0.00,WUHU216HW,2013-05-17 01:14:00,
2013-05-16 21:19:00,69.7,55.3,29.65,North,0,0.0,0.0,60,0.00,,,0.00,WUHU216HW,2013-05-17 01:19:00,
2013-05-16 21:24:00,69.7,55.3,29.66,North,0,0.0,0.0,60,0.00,,,0.00,WUHU216HW,2013-05-17 01:24:00,
2013-05-16 21:29:00,69.5,55.5,29.66,North,0,0.0,0.0,61,0.00,,,0.00,WUHU216HW,2013-05-17 01:29:00,
2013-05-16 21:34:00,69.3,55.4,29.66,North,0,0.0,0.0,61,0.00,,,0.00,WUHU216HW,2013-05-17 01:34:00,
2013-05-16 21:39:00,69.1,55.2,29.66,North,0,0.0,0.0,61,0.00,,,0.00,WUHU216HW,2013-05-17 01:39:00,
2013-05-16 21:44:00,68.8,54.4,29.67,North,0,0.0,0.0,60,0.00,,,0.00,WUHU216HW,2013-05-17 01:44:00,
2013-05-16 21:49:00,68.4,54.5,29.67,North,0,0.0,0.0,61,0.00,,,0.00,WUHU216HW,2013-05-17 01:49:00,
2013-05-16 21:55:00,67.9,54.8,29.68,North,0,0.0,0.0,63,0.00,,,0.00,WUHU216HW,2013-05-17 01:55:00,
2013-05-16 22:00:00,67.3,54.3,29.68,North,0,0.0,0.0,63,0.00,,,0.00,WUHU216HW,2013-05-17 02:00:00,
2013-05-16 22:05:00,67.0,53.9,29.68,North,0,0.0,0.0,63,0.00,,,0.00,WUHU216HW,2013-05-17 02:05:00,
2013-05-16 22:10:00,66.6,53.7,29.68,North,0,0.0,0.0,63,0.00,,,0.00,WUHU216HW,2013-05-17 02:10:00,
2013-05-16 22:15:00,66.6,53.7,29.68,North,0,0.0,0.0,63,0.00,,,0.00,WUHU216HW,2013-05-17 02:15:00,
2013-05-16 22:20:00,66.6,53.7,29.68,North,0,0.0,0.0,63,0.00,,,0.00,WUHU216HW,2013-05-17 02:20:00,
2013-05-16 22:25:00,66.8,53.4,29.68,North,0,0.0,0.0,62,0.00,,,0.00,WUHU216HW,2013-05-17 02:25:00,
2013-05-16 22:30:00,67.0,52.7,29.69,North,0,0.0,0.0,60,0.00,,,0.00,WUHU216HW,2013-05-17 02:30:00,
2013-05-16 22:36:00,67.1,51.4,29.69,North,0,0.0,0.0,57,0.00,,,0.00,WUHU216HW,2013-05-17 02:36:00,
2013-05-16 22:41:00,67.3,50.6,29.69,North,0,0.0,0.0,55,0.00,,,0.00,WUHU216HW,2013-05-17 02:41:00,
2013-05-16 22:46:00,67.3,49.6,29.69,North,0,0.0,0.0,53,0.00,,,0.00,WUHU216HW,2013-05-17 02:46:00,
2013-05-16 22:51:00,67.3,48.6,29.69,North,0,0.0,0.0,51,0.00,,,0.00,WUHU216HW,2013-05-17 02:51:00,
2013-05-16 22:56:00,67.3,49.2,29.69,North,0,0.0,0.0,52,0.00,,,0.00,WUHU216HW,2013-05-17 02:56:00,
2013-05-16 23:01:00,67.1,48.4,29.69,North,0,0.0,0.0,51,0.00,,,0.00,WUHU216HW,2013-05-17 03:01:00,
2013-05-16 23:06:00,66.8,48.2,29.69,North,0,0.0,0.0,51,0.00,,,0.00,WUHU216HW,2013-05-17 03:06:00,
2013-05-16 23:11:00,66.6,48.4,29.69,North,0,0.0,0.0,52,0.00,,,0.00,WUHU216HW,2013-05-17 03:11:00,
2013-05-16 23:16:00,65.9,47.8,29.69,North,0,0.0,0.0,52,0.00,,,0.00,WUHU216HW,2013-05-17 03:16:00,
2013-05-16 23:21:00,65.3,47.7,29.69,North,0,0.0,0.0,53,0.00,,,0.00,WUHU216HW,2013-05-17 03:21:00,
2013-05-16 23:27:00,64.8,47.7,29.69,North,0,0.0,0.0,54,0.00,,,0.00,WUHU216HW,2013-05-17 03:27:00,
2013-05-16 23:32:00,64.3,48.2,29.70,North,0,0.0,0.0,56,0.00,,,0.00,WUHU216HW,2013-05-17 03:32:00,
2013-05-16 23:37:00,63.7,48.2,29.70,North,0,0.0,0.0,57,0.00,,,0.00,WUHU216HW,2013-05-17 03:37:00,
2013-05-16 23:42:00,63.2,48.6,29.70,North,0,0.0,0.0,59,0.00,,,0.00,WUHU216HW,2013-05-17 03:42:00,
2013-05-16 23:47:00,62.6,48.2,29.70,North,0,0.0,0.0,59,0.00,,,0.00,WUHU216HW,2013-05-17 03:47:00,
2013-05-16 23:52:00,62.5,48.0,29.71,North,0,0.0,0.0,59,0.00,,,0.00,WUHU216HW,2013-05-17 03:52:00,
2013-05-16 23:57:00,62.3,47.8,29.71,North,0,0.0,0.0,59,0.00,,,0.00,WUHU216HW,2013-05-17 03:57:00,